Time;durP1;ratioP1;P1;durP2;ratioP2;P2;SDS_P1;SDS_P2;PMS_P1;PMS_P2;Temp;Humidity;BMP_temperature;BMP_pressure;BME280_temperature;BME280_humidity;BME280_pressure;Samples;Min_cycle;Max_cycle;Signal;HPM_P1;HPM_P2
2023/06/08 00:00:10;;;;;;;0.30;0.30;;;18.30;99.90;;;;;;5114114;28;20035;-72
2023/06/08 00:02:43;;;;;;;0.00;0.00;;;18.30;99.90;;;;;;5095887;28;20019;-72
2023/06/08 00:05:12;;;;;;;0.10;0.10;;;18.30;99.90;;;;;;5126752;27;20027;-72
2023/06/08 00:07:40;;;;;;;0.05;0.05;;;18.30;99.90;;;;;;5113791;27;20033;-72
2023/06/08 00:10:10;;;;;;;0.00;0.00;;;18.30;99.90;;;;;;5125553;27;20036;-72
2023/06/08 00:12:36;;;;;;;0.10;0.10;;;18.20;99.90;;;;;;5114032;28;20109;-72
2023/06/08 00:15:04;;;;;;;0.10;0.10;;;18.40;99.90;;;;;;5114917;28;20100;-72
2023/06/08 00:17:31;;;;;;;0.10;0.10;;;18.40;99.90;;;;;;5114981;28;20500;-72
2023/06/08 00:19:59;;;;;;;0.10;0.10;;;18.10;99.90;;;;;;5116189;28;20032;-72
2023/06/08 00:22:26;;;;;;;0.77;0.68;;;17.90;99.90;;;;;;5115185;28;20038;-72
2023/06/08 00:24:52;;;;;;;0.47;0.47;;;17.90;99.90;;;;;;5113386;28;20020;-72
2023/06/08 00:27:18;;;;;;;5.05;0.52;;;18.00;99.90;;;;;;5096307;28;20396;-72
2023/06/08 00:29:44;;;;;;;0.10;0.10;;;18.00;99.90;;;;;;5114836;28;20028;-73
2023/06/08 00:32:13;;;;;;;0.77;0.77;;;17.90;99.90;;;;;;5109041;27;20019;-72
2023/06/08 00:34:38;;;;;;;10.80;1.95;;;17.90;99.90;;;;;;5102687;28;20036;-72
2023/06/08 00:37:04;;;;;;;0.10;0.10;;;17.90;99.90;;;;;;5093711;28;20016;-72
2023/06/08 00:39:31;;;;;;;0.10;0.10;;;18.00;99.90;;;;;;5097041;28;20055;-72
2023/06/08 00:41:56;;;;;;;0.10;0.10;;;17.80;99.90;;;;;;5122797;27;20050;-72
2023/06/08 00:44:22;;;;;;;0.00;0.00;;;17.70;99.90;;;;;;5114232;28;20042;-72
2023/06/08 00:46:49;;;;;;;0.10;0.10;;;17.90;99.90;;;;;;5114410;28;20480;-72
2023/06/08 00:49:16;;;;;;;0.00;0.00;;;17.80;99.90;;;;;;5117622;27;20063;-72
2023/06/08 00:51:43;;;;;;;0.10;0.10;;;17.90;99.90;;;;;;5082517;28;20027;-72
2023/06/08 00:54:12;;;;;;;0.20;0.20;;;17.90;99.90;;;;;;5096193;28;20122;-72
2023/06/08 00:56:39;;;;;;;0.00;0.00;;;18.00;99.90;;;;;;5114298;28;20019;-72
2023/06/08 00:59:05;;;;;;;0.00;0.00;;;18.20;99.90;;;;;;5099429;28;20031;-72
2023/06/08 01:01:35;;;;;;;0.10;0.10;;;18.00;99.90;;;;;;5089435;28;20035;-72
2023/06/08 01:04:09;;;;;;;0.73;0.73;;;18.00;99.90;;;;;;5113086;28;20361;-72
2023/06/08 01:06:39;;;;;;;0.00;0.00;;;18.00;99.90;;;;;;5097020;28;20047;-72
2023/06/08 01:09:08;;;;;;;0.20;0.20;;;18.00;99.90;;;;;;5112223;28;20019;-72
2023/06/08 01:11:45;;;;;;;0.20;0.20;;;17.70;99.90;;;;;;5113800;27;20043;-72
2023/06/08 01:14:19;;;;;;;0.13;0.13;;;17.70;99.90;;;;;;5096636;28;20395;-72
2023/06/08 01:16:51;;;;;;;0.03;0.03;;;17.70;99.90;;;;;;5083638;28;20062;-72
2023/06/08 01:19:43;;;;;;;1.17;1.05;;;17.70;99.90;;;;;;5115264;27;20024;-72
2023/06/08 01:22:29;;;;;;;0.08;0.08;;;17.60;99.90;;;;;;5109229;27;20055;-72
2023/06/08 01:24:56;;;;;;;0.10;0.10;;;17.70;99.90;;;;;;5083236;27;20100;-72
2023/06/08 01:27:25;;;;;;;1.25;1.15;;;17.60;99.90;;;;;;5115766;27;20030;-72
2023/06/08 01:29:54;;;;;;;0.10;0.10;;;17.60;99.90;;;;;;5113530;28;20464;-72
2023/06/08 01:32:20;;;;;;;0.03;0.03;;;17.60;99.90;;;;;;5112421;27;20024;-73
2023/06/08 01:34:47;;;;;;;0.00;0.00;;;17.60;99.90;;;;;;5114360;27;20023;-73
2023/06/08 01:37:29;;;;;;;0.30;0.20;;;17.60;99.90;;;;;;5119964;27;20727;-72
2023/06/08 01:40:02;;;;;;;0.10;0.10;;;17.60;99.90;;;;;;5091581;27;20368;-72
2023/06/08 01:42:29;;;;;;;0.10;0.10;;;17.60;99.90;;;;;;5104304;28;20035;-72
2023/06/08 01:45:00;;;;;;;0.10;0.10;;;17.50;99.90;;;;;;5092784;28;20019;-72
2023/06/08 01:47:51;;;;;;;0.00;0.00;;;17.50;99.90;;;;;;5120231;27;20366;-72
2023/06/08 01:50:19;;;;;;;0.80;0.60;;;17.20;99.90;;;;;;5125497;27;20448;-72
2023/06/08 01:52:45;;;;;;;0.10;0.10;;;17.20;99.90;;;;;;5112885;28;20103;-72
2023/06/08 01:55:15;;;;;;;0.10;0.10;;;17.00;99.90;;;;;;5112130;28;20026;-72
2023/06/08 01:57:41;;;;;;;3.50;0.65;;;17.10;99.90;;;;;;5097647;28;20080;-72
2023/06/08 02:00:08;;;;;;;0.20;0.20;;;17.10;99.90;;;;;;5094127;28;20016;-72
2023/06/08 02:02:38;;;;;;;4.05;1.77;;;17.30;99.90;;;;;;5112521;27;20044;-72
2023/06/08 02:05:08;;;;;;;0.10;0.10;;;17.20;99.90;;;;;;5094763;28;20062;-72
2023/06/08 02:07:37;;;;;;;0.10;0.10;;;17.20;99.90;;;;;;5099729;28;20123;-72
2023/06/08 02:10:06;;;;;;;0.52;0.52;;;17.10;99.90;;;;;;5125500;27;20042;-72
2023/06/08 02:12:33;;;;;;;0.98;0.65;;;17.00;99.90;;;;;;5105052;28;20502;-72
2023/06/08 02:14:59;;;;;;;0.60;0.60;;;16.80;99.90;;;;;;5113703;27;20107;-72
2023/06/08 02:17:33;;;;;;;0.10;0.10;;;16.80;99.90;;;;;;5134988;27;20375;-72
2023/06/08 02:20:04;;;;;;;0.55;0.55;;;16.90;99.90;;;;;;5113923;27;20026;-72
2023/06/08 02:22:30;;;;;;;0.10;0.10;;;16.80;99.90;;;;;;5104778;27;20066;-72
2023/06/08 02:24:56;;;;;;;1.17;1.17;;;16.90;99.90;;;;;;5134656;27;20063;-72
2023/06/08 02:27:21;;;;;;;0.00;0.00;;;16.80;99.90;;;;;;5116118;27;20035;-71
2023/06/08 02:29:47;;;;;;;0.00;0.00;;;16.90;99.90;;;;;;5134615;27;20429;-72
2023/06/08 02:32:13;;;;;;;0.22;0.22;;;17.00;99.90;;;;;;5134311;27;20118;-72
2023/06/08 02:34:39;;;;;;;0.10;0.10;;;16.90;99.90;;;;;;5134517;27;20031;-72
2023/06/08 02:37:06;;;;;;;0.10;0.10;;;17.00;99.90;;;;;;5112801;27;20027;-72
2023/06/08 02:39:32;;;;;;;0.30;0.30;;;16.90;99.90;;;;;;5104382;27;20379;-72
2023/06/08 02:41:58;;;;;;;0.70;0.70;;;16.80;99.90;;;;;;5115620;27;20039;-72
2023/06/08 02:44:24;;;;;;;0.08;0.08;;;16.40;99.90;;;;;;5116077;27;20471;-72
2023/06/08 02:46:50;;;;;;;0.10;0.10;;;16.40;99.90;;;;;;5115566;27;20066;-72
2023/06/08 02:49:16;;;;;;;0.10;0.10;;;16.50;99.90;;;;;;5133957;27;20066;-72
2023/06/08 02:51:42;;;;;;;0.08;0.08;;;16.60;99.90;;;;;;5133938;27;20378;-72
2023/06/08 02:54:07;;;;;;;0.30;0.30;;;16.50;99.90;;;;;;5134144;27;20134;-72
2023/06/08 02:56:33;;;;;;;0.25;0.25;;;16.50;99.90;;;;;;5133927;27;20118;-72
2023/06/08 02:59:02;;;;;;;0.10;0.10;;;16.40;99.90;;;;;;5115502;27;20106;-72
2023/06/08 03:01:30;;;;;;;0.68;0.68;;;16.40;99.90;;;;;;5115550;27;20051;-72
2023/06/08 03:04:18;;;;;;;0.38;0.38;;;16.30;99.90;;;;;;5115299;27;20110;-72
2023/06/08 03:06:53;;;;;;;0.00;0.00;;;16.20;99.90;;;;;;5115671;27;20031;-72
2023/06/08 03:09:22;;;;;;;0.30;0.30;;;16.30;99.90;;;;;;5115393;27;20019;-73
2023/06/08 03:11:51;;;;;;;0.45;0.32;;;16.30;99.90;;;;;;5107836;28;20023;-72
2023/06/08 03:14:18;;;;;;;0.52;0.52;;;16.30;99.90;;;;;;5109427;27;20080;-73
2023/06/08 03:16:48;;;;;;;0.10;0.10;;;16.10;99.90;;;;;;5133593;27;20051;-73
2023/06/08 03:19:14;;;;;;;2.10;1.75;;;16.10;99.90;;;;;;5115419;27;20023;-72
2023/06/08 03:21:43;;;;;;;0.10;0.10;;;16.20;99.90;;;;;;5115123;28;20025;-72
2023/06/08 03:24:10;;;;;;;1.75;1.27;;;16.30;99.90;;;;;;5109370;28;20023;-72
2023/06/08 03:26:38;;;;;;;0.10;0.10;;;16.50;99.90;;;;;;5112429;28;20034;-73
2023/06/08 03:29:05;;;;;;;0.17;0.17;;;16.50;99.90;;;;;;5115252;28;20027;-73
2023/06/08 03:31:36;;;;;;;0.32;0.32;;;16.40;99.90;;;;;;5114764;28;20056;-72
2023/06/08 03:34:04;;;;;;;;;;;16.40;99.90;;;;;;5133124;28;20031;-72
2023/06/08 03:36:35;;;;;;;0.10;0.10;;;16.30;99.90;;;;;;5098359;28;19911;-73
2023/06/08 03:39:05;;;;;;;0.05;0.05;;;16.30;99.90;;;;;;5115222;28;20042;-72
2023/06/08 03:41:32;;;;;;;0.10;0.10;;;16.30;99.90;;;;;;5114990;28;20027;-72
2023/06/08 03:43:58;;;;;;;0.10;0.10;;;16.30;99.90;;;;;;5086819;28;20134;-72
2023/06/08 03:46:27;;;;;;;0.10;0.10;;;16.00;99.90;;;;;;5115053;28;20043;-72
2023/06/08 03:48:53;;;;;;;0.77;0.75;;;16.00;99.90;;;;;;5114629;28;20034;-73
2023/06/08 03:51:21;;;;;;;0.20;0.20;;;16.10;99.90;;;;;;5133657;28;20019;-72
2023/06/08 03:53:51;;;;;;;0.10;0.10;;;16.10;99.90;;;;;;5114926;28;20050;-73
2023/06/08 03:56:18;;;;;;;0.10;0.10;;;16.10;99.90;;;;;;5098304;28;20433;-72
2023/06/08 03:58:44;;;;;;;0.10;0.10;;;16.10;99.90;;;;;;5133154;28;20124;-73
2023/06/08 04:01:14;;;;;;;0.10;0.10;;;16.10;99.90;;;;;;5114948;28;20037;-72
2023/06/08 04:03:41;;;;;;;0.52;0.50;;;16.10;99.90;;;;;;5132802;28;20023;-72
2023/06/08 04:06:08;;;;;;;0.10;0.10;;;16.10;99.90;;;;;;5115793;28;20035;-72
2023/06/08 04:08:39;;;;;;;0.50;0.50;;;15.80;99.90;;;;;;5114989;28;20026;-72
2023/06/08 04:11:07;;;;;;;1.65;1.55;;;15.70;99.90;;;;;;5131658;28;20075;-72
2023/06/08 04:13:34;;;;;;;0.55;0.43;;;15.90;99.90;;;;;;5102343;28;20020;-72
2023/06/08 04:16:03;;;;;;;0.63;0.63;;;16.00;99.90;;;;;;5133221;28;20019;-72
2023/06/08 04:18:29;;;;;;;0.68;0.68;;;16.10;99.90;;;;;;5114320;28;20383;-72
2023/06/08 04:20:55;;;;;;;0.28;0.28;;;16.00;99.90;;;;;;5114870;28;20019;-72
2023/06/08 04:23:21;;;;;;;0.10;0.10;;;16.00;99.90;;;;;;5132891;28;20027;-72
2023/06/08 04:25:48;;;;;;;0.90;0.90;;;16.10;99.90;;;;;;5114797;28;20114;-72
2023/06/08 04:28:13;;;;;;;0.20;0.20;;;16.00;99.90;;;;;;5132638;28;20206;-72
2023/06/08 04:30:39;;;;;;;0.50;0.50;;;16.00;99.90;;;;;;5114771;28;20471;-72
2023/06/08 04:33:05;;;;;;;3.50;2.47;;;16.10;99.90;;;;;;5116068;27;20027;-72
2023/06/08 04:35:32;;;;;;;0.10;0.10;;;16.10;99.90;;;;;;5118211;27;20080;-72
2023/06/08 04:37:59;;;;;;;0.10;0.10;;;16.10;99.90;;;;;;5136550;27;20027;-72
2023/06/08 04:40:26;;;;;;;0.38;0.38;;;16.20;99.90;;;;;;5117673;27;20036;-72
2023/06/08 04:42:52;;;;;;;0.10;0.10;;;16.20;99.90;;;;;;5116773;27;20038;-73
2023/06/08 04:45:18;;;;;;;0.00;0.00;;;16.40;99.90;;;;;;5114752;27;20019;-73
2023/06/08 04:47:45;;;;;;;0.03;0.03;;;16.60;99.90;;;;;;5118064;27;20110;-72
2023/06/08 04:50:11;;;;;;;1.02;0.55;;;16.90;99.90;;;;;;5117838;27;20066;-72
2023/06/08 04:52:45;;;;;;;0.00;0.00;;;17.00;99.90;;;;;;5136491;27;20487;-72
2023/06/08 04:55:13;;;;;;;0.10;0.10;;;16.80;99.90;;;;;;5136289;27;20019;-73
2023/06/08 04:57:42;;;;;;;0.20;0.20;;;16.70;99.90;;;;;;5117949;27;20138;-72
2023/06/08 05:00:09;;;;;;;0.10;0.10;;;16.90;99.90;;;;;;5136103;27;20062;-72
2023/06/08 05:02:37;;;;;;;0.10;0.10;;;16.90;99.90;;;;;;5136066;27;20023;-72
2023/06/08 05:05:03;;;;;;;0.55;0.55;;;17.00;99.90;;;;;;5136041;27;20023;-72
2023/06/08 05:07:29;;;;;;;2.30;2.10;;;16.90;99.90;;;;;;5117560;27;20023;-72
2023/06/08 05:10:00;;;;;;;0.00;0.00;;;16.90;99.90;;;;;;5117822;27;20030;-72
2023/06/08 05:12:27;;;;;;;0.10;0.10;;;17.20;99.90;;;;;;5122970;27;20073;-72
2023/06/08 05:14:54;;;;;;;0.13;0.13;;;17.30;99.90;;;;;;5134381;27;20019;-72
2023/06/08 05:17:22;;;;;;;0.10;0.10;;;17.10;99.90;;;;;;5135925;27;20038;-72
2023/06/08 05:19:51;;;;;;;0.20;0.20;;;17.40;99.90;;;;;;5135777;27;20018;-73
2023/06/08 05:22:17;;;;;;;0.38;0.38;;;17.50;99.90;;;;;;5135950;27;20037;-73
2023/06/08 05:24:43;;;;;;;5.32;0.75;;;17.30;99.90;;;;;;5135672;27;20019;-72
2023/06/08 05:27:08;;;;;;;0.00;0.00;;;17.50;99.90;;;;;;5117393;27;20495;-73
2023/06/08 05:29:34;;;;;;;0.57;0.57;;;17.60;99.90;;;;;;5135432;27;20080;-73
2023/06/08 05:32:00;;;;;;;0.00;0.00;;;17.60;99.90;;;;;;5135364;27;20027;-73
2023/06/08 05:34:27;;;;;;;0.52;0.52;;;17.60;99.90;;;;;;5117500;27;20103;-73
2023/06/08 05:36:56;;;;;;;0.08;0.08;;;17.50;99.90;;;;;;5135698;27;20031;-73
2023/06/08 05:39:22;;;;;;;0.20;0.20;;;17.70;99.90;;;;;;5135418;27;20067;-73
2023/06/08 05:41:48;;;;;;;0.00;0.00;;;17.90;99.90;;;;;;5135289;27;20063;-72
2023/06/08 05:44:13;;;;;;;0.20;0.20;;;17.70;99.90;;;;;;5134192;27;20031;-73
2023/06/08 05:46:39;;;;;;;1.15;0.98;;;17.70;99.90;;;;;;5107789;27;20046;-73
2023/06/08 05:49:05;;;;;;;0.00;0.00;;;17.50;99.90;;;;;;5097936;28;20027;-73
2023/06/08 05:51:31;;;;;;;0.10;0.10;;;17.40;99.90;;;;;;5113668;28;20475;-73
2023/06/08 05:53:57;;;;;;;0.40;0.40;;;17.50;99.90;;;;;;5113986;28;20028;-73
2023/06/08 05:56:23;;;;;;;0.52;0.50;;;17.50;99.90;;;;;;5113556;28;20046;-73
2023/06/08 05:58:49;;;;;;;2.10;1.45;;;17.20;99.90;;;;;;5098324;28;20131;-72
2023/06/08 06:01:15;;;;;;;0.00;0.00;;;17.30;99.90;;;;;;5114762;27;20061;-74
2023/06/08 06:03:41;;;;;;;0.10;0.10;;;17.40;99.90;;;;;;5104737;28;20020;-73
2023/06/08 06:06:07;;;;;;;0.77;0.75;;;17.40;99.90;;;;;;5091167;28;20115;-72
2023/06/08 06:08:33;;;;;;;1.45;0.80;;;17.30;99.90;;;;;;5110905;28;20107;-73
2023/06/08 06:10:59;;;;;;;0.10;0.10;;;17.50;99.90;;;;;;5113318;28;20031;-72
2023/06/08 06:13:26;;;;;;;0.57;0.57;;;17.60;99.90;;;;;;5119909;27;20031;-72
2023/06/08 06:15:52;;;;;;;0.82;0.82;;;17.80;99.90;;;;;;5107945;28;20035;-72
2023/06/08 06:18:17;;;;;;;2.17;1.55;;;17.70;99.90;;;;;;5121047;27;20022;-73
2023/06/08 06:20:43;;;;;;;0.93;0.85;;;17.70;99.90;;;;;;5112841;27;20027;-72
2023/06/08 06:23:12;;;;;;;1.02;0.80;;;17.60;99.90;;;;;;5127632;27;20038;-72
2023/06/08 06:25:42;;;;;;;0.20;0.20;;;17.50;99.90;;;;;;5115222;27;20047;-72
2023/06/08 06:28:08;;;;;;;1.88;1.00;;;17.30;99.90;;;;;;5120786;27;20023;-72
2023/06/08 06:30:35;;;;;;;0.20;0.20;;;17.60;99.90;;;;;;5122075;27;20489;-73
2023/06/08 06:33:01;;;;;;;1.10;1.00;;;17.60;99.90;;;;;;5122524;27;20034;-72
2023/06/08 06:35:27;;;;;;;0.75;0.75;;;17.70;99.90;;;;;;5109446;28;20087;-73
2023/06/08 06:37:54;;;;;;;2.03;1.02;;;17.60;99.90;;;;;;5111631;28;20452;-72
2023/06/08 06:40:21;;;;;;;0.00;0.00;;;17.60;99.90;;;;;;5112232;28;20035;-73
2023/06/08 06:42:46;;;;;;;0.10;0.10;;;17.40;99.90;;;;;;5112126;28;20491;-72
2023/06/08 06:45:30;;;;;;;0.00;0.00;;;17.70;99.90;;;;;;5098007;28;20042;-72
2023/06/08 06:47:56;;;;;;;0.08;0.08;;;18.20;99.90;;;;;;5112513;28;20035;-73
2023/06/08 06:50:21;;;;;;;7.18;1.55;;;18.40;99.90;;;;;;5112513;28;20030;-72
2023/06/08 06:52:47;;;;;;;1.55;1.20;;;18.20;99.90;;;;;;5112312;28;20027;-72
2023/06/08 06:55:13;;;;;;;2.17;0.77;;;18.20;99.90;;;;;;5111978;28;20024;-72
2023/06/08 06:57:40;;;;;;;0.08;0.08;;;18.40;99.90;;;;;;5083797;28;20106;-73
2023/06/08 07:00:10;;;;;;;0.00;0.00;;;18.90;99.90;;;;;;5075174;28;20047;-74
2023/06/08 07:02:40;;;;;;;0.90;0.40;;;19.10;99.90;;;;;;5111824;28;20080;-73
2023/06/08 07:05:07;;;;;;;0.10;0.10;;;19.10;99.90;;;;;;5112455;28;20035;-73
2023/06/08 07:07:36;;;;;;;0.38;0.38;;;19.40;99.90;;;;;;5112229;28;20047;-73
2023/06/08 07:10:02;;;;;;;0.20;0.20;;;19.30;99.90;;;;;;5088580;28;20384;-73
2023/06/08 07:12:30;;;;;;;0.20;0.20;;;19.40;99.90;;;;;;5093928;28;20384;-73
2023/06/08 07:14:56;;;;;;;0.00;0.00;;;19.30;99.90;;;;;;5127814;27;20030;-73
2023/06/08 07:17:22;;;;;;;0.40;0.40;;;19.30;99.90;;;;;;5115605;28;20159;-73
2023/06/08 07:19:48;;;;;;;0.95;0.85;;;19.40;99.90;;;;;;5121508;27;20511;-73
2023/06/08 07:22:14;;;;;;;0.00;0.00;;;19.50;99.90;;;;;;5114687;27;20383;-73
2023/06/08 07:24:40;;;;;;;0.20;0.20;;;19.60;99.90;;;;;;5128796;27;20027;-73
2023/06/08 07:27:06;;;;;;;0.10;0.10;;;19.80;99.90;;;;;;5128064;27;20118;-73
2023/06/08 07:29:33;;;;;;;0.63;0.63;;;19.60;99.90;;;;;;5114861;28;20023;-73
2023/06/08 07:31:58;;;;;;;3.15;1.67;;;19.70;99.90;;;;;;5132223;28;20020;-74
2023/06/08 07:34:26;;;;;;;0.15;0.15;;;19.60;99.90;;;;;;5114019;28;20031;-78
2023/06/08 07:36:51;;;;;;;3.85;3.10;;;19.50;99.90;;;;;;5133164;28;20091;-78
2023/06/08 07:39:17;;;;;;;0.00;0.00;;;19.10;99.90;;;;;;5115182;28;20062;-78
2023/06/08 07:41:43;;;;;;;0.17;0.17;;;19.20;99.90;;;;;;5133155;28;20027;-78
2023/06/08 07:44:09;;;;;;;0.10;0.10;;;19.40;99.90;;;;;;5133019;28;20501;-77
2023/06/08 07:46:34;;;;;;;0.00;0.00;;;19.50;99.90;;;;;;5126802;28;20035;-77
2023/06/08 07:49:00;;;;;;;0.20;0.20;;;19.90;99.90;;;;;;5133411;28;20023;-78
2023/06/08 07:51:26;;;;;;;1.65;1.48;;;20.00;99.90;;;;;;5114846;28;20031;-78
2023/06/08 07:53:52;;;;;;;0.40;0.40;;;20.30;99.90;;;;;;5133289;28;20023;-77
2023/06/08 07:56:18;;;;;;;1.02;0.55;;;20.40;99.90;;;;;;5133158;28;20083;-77
2023/06/08 07:58:43;;;;;;;0.00;0.00;;;20.60;99.90;;;;;;5133030;28;20110;-77
2023/06/08 08:01:09;;;;;;;2.20;2.10;;;20.80;99.90;;;;;;5133418;28;20102;-77
2023/06/08 08:03:40;;;;;;;0.00;0.00;;;20.70;99.90;;;;;;5133355;28;20028;-78
2023/06/08 08:06:06;;;;;;;0.22;0.22;;;20.90;99.90;;;;;;5133214;27;20027;-77
2023/06/08 08:08:32;;;;;;;0.00;0.00;;;21.00;99.90;;;;;;5135795;27;20088;-76
2023/06/08 08:10:58;;;;;;;0.10;0.10;;;21.00;99.90;;;;;;5136830;27;20111;-77
2023/06/08 08:13:24;;;;;;;0.28;0.28;;;21.20;99.90;;;;;;5123401;27;20106;-78
2023/06/08 08:15:50;;;;;;;0.10;0.10;;;21.30;99.90;;;;;;5137246;27;20450;-77
2023/06/08 08:18:15;;;;;;;0.20;0.20;;;21.50;99.90;;;;;;5136976;27;20124;-78
2023/06/08 08:20:41;;;;;;;0.35;0.35;;;21.40;99.90;;;;;;5118573;27;20429;-78
2023/06/08 08:23:07;;;;;;;0.00;0.00;;;21.60;99.90;;;;;;5136512;27;20436;-78
2023/06/08 08:25:34;;;;;;;3.88;0.90;;;21.70;99.90;;;;;;5137098;27;20027;-78
2023/06/08 08:28:00;;;;;;;2.60;2.40;;;21.60;99.90;;;;;;5136839;27;20015;-78
2023/06/08 08:30:26;;;;;;;2.92;1.73;;;21.60;99.90;;;;;;5118545;27;20030;-78
2023/06/08 08:32:52;;;;;;;0.40;0.40;;;21.20;99.90;;;;;;5136918;27;20506;-78
2023/06/08 08:35:19;;;;;;;0.10;0.10;;;20.90;99.90;;;;;;5118454;27;20057;-77
2023/06/08 08:37:45;;;;;;;38.75;4.03;;;21.20;99.90;;;;;;5136748;27;20031;-78
2023/06/08 08:40:11;;;;;;;10.30;6.43;;;21.50;99.90;;;;;;5136335;27;20024;-78
2023/06/08 08:42:45;;;;;;;1.83;0.60;;;21.60;99.90;;;;;;5136651;27;20035;-77
2023/06/08 08:45:14;;;;;;;0.00;0.00;;;20.90;99.90;;;;;;5136504;27;20026;-78
2023/06/08 08:47:41;;;;;;;0.70;0.57;;;21.30;99.90;;;;;;5136648;27;20391;-77
2023/06/08 08:50:16;;;;;;;0.00;0.00;;;21.30;99.90;;;;;;5136433;27;20023;-77
2023/06/08 08:52:45;;;;;;;2.92;1.95;;;21.60;99.90;;;;;;5133476;27;20475;-77
2023/06/08 08:55:11;;;;;;;0.90;0.85;;;21.50;99.90;;;;;;5112254;27;20031;-77
2023/06/08 08:57:37;;;;;;;2.25;1.38;;;21.70;99.90;;;;;;5136404;27;20024;-76
2023/06/08 09:00:10;;;;;;;3.38;1.27;;;21.90;99.90;;;;;;5136305;27;20079;-77
2023/06/08 09:02:36;;;;;;;1.48;0.90;;;21.90;99.90;;;;;;5136203;27;20041;-77
2023/06/08 09:05:05;;;;;;;1.33;1.23;;;21.90;99.90;;;;;;5117847;27;20031;-77
2023/06/08 09:07:31;;;;;;;1.90;1.75;;;21.80;99.90;;;;;;5135932;27;20039;-77
2023/06/08 09:10:18;;;;;;;3.65;1.92;;;22.30;99.90;;;;;;5135821;27;20369;-77
2023/06/08 09:12:48;;;;;;;0.50;0.50;;;21.80;99.90;;;;;;5121313;27;20114;-77
2023/06/08 09:15:27;;;;;;;0.63;0.63;;;21.80;99.90;;;;;;5135936;27;20038;-77
2023/06/08 09:17:57;;;;;;;0.08;0.08;;;22.20;99.90;;;;;;5133551;27;20289;-77
2023/06/08 09:20:33;;;;;;;2.05;1.20;;;22.90;99.90;;;;;;5135677;27;20028;-77
2023/06/08 09:23:17;;;;;;;2.63;1.08;;;23.30;99.90;;;;;;5117114;27;20038;-77
2023/06/08 09:25:43;;;;;;;0.00;0.00;;;23.20;99.90;;;;;;5135672;27;20035;-78
2023/06/08 09:28:16;;;;;;;1.55;0.85;;;23.50;99.50;;;;;;5135689;27;20034;-77
2023/06/08 09:30:45;;;;;;;1.33;0.60;;;23.70;99.50;;;;;;5136123;27;20035;-77
2023/06/08 09:33:24;;;;;;;0.57;0.22;;;23.50;99.30;;;;;;5118401;27;20471;-77
2023/06/08 09:35:56;;;;;;;3.58;1.90;;;23.80;99.00;;;;;;5117293;27;20023;-78
2023/06/08 09:38:26;;;;;;;2.60;1.20;;;24.10;98.50;;;;;;5135950;27;20023;-78
2023/06/08 09:41:15;;;;;;;1.90;1.20;;;24.00;99.10;;;;;;5135384;27;20023;-78
2023/06/08 09:43:45;;;;;;;5.18;1.80;;;24.30;98.40;;;;;;5117211;27;20439;-78
2023/06/08 09:46:15;;;;;;;14.90;3.20;;;24.70;97.10;;;;;;5135259;27;20039;-78
2023/06/08 09:48:53;;;;;;;2.72;1.30;;;24.40;97.50;;;;;;5135016;27;20034;-78
2023/06/08 09:51:22;;;;;;;0.90;0.65;;;24.30;97.70;;;;;;5135152;27;20047;-78
2023/06/08 09:53:57;;;;;;;1.75;1.10;;;24.60;97.40;;;;;;5135295;27;20031;-78
2023/06/08 09:56:26;;;;;;;0.57;0.57;;;24.80;96.60;;;;;;5135139;27;20031;-78
2023/06/08 09:58:58;;;;;;;0.75;0.75;;;25.00;96.50;;;;;;5135105;27;20031;-79
2023/06/08 10:01:35;;;;;;;18.50;4.10;;;24.60;96.90;;;;;;5135209;27;20504;-78
2023/06/08 10:04:34;;;;;;;0.50;0.50;;;23.90;97.30;;;;;;5134964;27;20015;-79
2023/06/08 10:07:17;;;;;;;4.30;1.95;;;24.00;98.20;;;;;;5130743;27;20080;-79
2023/06/08 10:09:45;;;;;;;2.65;1.70;;;24.30;97.90;;;;;;5135026;27;20379;-79
2023/06/08 10:12:11;;;;;;;2.35;1.33;;;24.60;97.20;;;;;;5105892;28;20055;-78
2023/06/08 10:14:37;;;;;;;5.15;1.48;;;24.80;97.10;;;;;;5131116;27;20046;-76
2023/06/08 10:17:04;;;;;;;1.65;1.40;;;25.10;96.10;;;;;;5116548;27;20095;-77
2023/06/08 10:19:35;;;;;;;0.70;0.68;;;25.40;96.20;;;;;;5116063;27;20031;-76
2023/06/08 10:22:01;;;;;;;;;;;25.40;96.00;;;;;;5135195;27;20467;-77
2023/06/08 10:24:29;;;;;;;2.08;0.73;;;25.10;96.20;;;;;;5134813;27;20010;-77
2023/06/08 10:27:24;;;;;;;0.20;0.20;;;25.20;96.50;;;;;;5134545;27;20463;-78
2023/06/08 10:30:01;;;;;;;1.30;1.08;;;25.70;95.80;;;;;;5133958;27;20035;-77
2023/06/08 10:32:31;;;;;;;0.05;0.05;;;25.50;96.10;;;;;;5134564;27;20049;-77
2023/06/08 10:34:58;;;;;;;3.85;1.33;;;25.80;95.70;;;;;;5134286;27;20475;-78
2023/06/08 10:37:31;;;;;;;2.00;1.23;;;25.30;96.00;;;;;;5116142;27;20065;-78
2023/06/08 10:39:58;;;;;;;1.15;1.13;;;25.30;96.90;;;;;;5134230;27;20039;-78
2023/06/08 10:42:24;;;;;;;0.68;0.68;;;25.70;96.30;;;;;;5133933;27;20027;-77
2023/06/08 10:44:57;;;;;;;0.80;0.80;;;26.00;95.70;;;;;;5134413;27;20133;-78
2023/06/08 10:47:24;;;;;;;0.98;0.90;;;26.30;95.20;;;;;;5134265;27;20050;-78
2023/06/08 10:49:59;;;;;;;1.55;1.45;;;26.50;95.20;;;;;;5133858;27;20111;-78
2023/06/08 10:52:26;;;;;;;3.28;2.25;;;26.60;95.40;;;;;;5134078;27;20055;-75
2023/06/08 10:55:05;;;;;;;0.55;0.45;;;26.50;94.60;;;;;;5133746;27;20047;-78
2023/06/08 10:57:36;;;;;;;0.13;0.10;;;26.20;95.00;;;;;;5133805;27;20023;-77
2023/06/08 11:00:23;;;;;;;0.60;0.60;;;26.40;95.00;;;;;;5134233;27;20079;-78
2023/06/08 11:02:53;;;;;;;1.45;0.45;;;26.70;94.80;;;;;;5133714;27;20019;-78
2023/06/08 11:05:20;;;;;;;2.90;0.65;;;27.30;93.60;;;;;;5133844;27;20035;-77
2023/06/08 11:07:46;;;;;;;9.23;2.83;;;27.30;94.10;;;;;;5133654;27;20530;-77
2023/06/08 11:10:11;;;;;;;3.17;0.90;;;27.50;93.70;;;;;;5123015;27;20482;-78
2023/06/08 11:12:38;;;;;;;0.52;0.52;;;28.20;93.50;;;;;;5117362;27;20028;-78
2023/06/08 11:15:04;;;;;;;9.70;1.58;;;27.30;93.50;;;;;;5119657;27;20027;-78
2023/06/08 11:17:40;;;;;;;0.00;0.00;;;27.60;93.80;;;;;;5133812;27;20035;-78
2023/06/08 11:20:06;;;;;;;7.32;3.17;;;27.90;92.60;;;;;;5133708;27;20499;-79
2023/06/08 11:22:32;;;;;;;2.97;1.50;;;27.80;92.30;;;;;;5133625;27;20024;-77
2023/06/08 11:25:03;;;;;;;0.47;0.47;;;28.50;92.30;;;;;;5133771;27;20030;-78
2023/06/08 11:27:29;;;;;;;0.20;0.20;;;28.90;91.10;;;;;;5133555;27;20042;-78
2023/06/08 11:29:55;;;;;;;0.15;0.15;;;29.20;90.90;;;;;;5133496;27;20023;-78
2023/06/08 11:32:21;;;;;;;5.53;0.70;;;29.40;90.50;;;;;;5115002;28;20146;-77
2023/06/08 11:34:49;;;;;;;0.00;0.00;;;29.30;90.30;;;;;;5134085;28;20034;-77
2023/06/08 11:37:17;;;;;;;2.72;1.63;;;29.60;90.00;;;;;;5135030;28;20070;-78
2023/06/08 11:39:44;;;;;;;0.60;0.55;;;29.30;90.20;;;;;;5133912;28;20023;-78
2023/06/08 11:42:10;;;;;;;0.00;0.00;;;29.60;90.10;;;;;;5115785;27;20035;-78
2023/06/08 11:44:36;;;;;;;0.93;0.57;;;29.80;88.90;;;;;;5138057;27;20407;-77
2023/06/08 11:47:06;;;;;;;0.38;0.38;;;30.10;88.50;;;;;;5137382;27;20067;-78
2023/06/08 11:49:53;;;;;;;0.77;0.77;;;30.00;87.80;;;;;;5119332;27;20118;-84
2023/06/08 11:52:21;;;;;;;3.13;0.40;;;30.40;87.50;;;;;;5137309;27;20261;-84
2023/06/08 11:54:54;;;;;;;0.35;0.35;;;30.50;86.80;;;;;;5133336;27;20111;-84
2023/06/08 11:57:21;;;;;;;1.25;0.68;;;30.30;86.70;;;;;;5113404;28;20037;-84
2023/06/08 11:59:47;;;;;;;0.22;0.22;;;29.90;87.40;;;;;;5100070;28;20015;-83
2023/06/08 12:02:13;;;;;;;0.98;0.98;;;29.80;87.90;;;;;;5115720;28;20036;-84
2023/06/08 12:04:42;;;;;;;0.00;0.00;;;30.20;87.60;;;;;;5115879;28;20019;-83
2023/06/08 12:07:10;;;;;;;0.22;0.22;;;30.30;87.70;;;;;;5115653;28;20118;-82
2023/06/08 12:09:46;;;;;;;0.30;0.30;;;30.60;87.90;;;;;;5115837;28;20022;-83
2023/06/08 12:12:12;;;;;;;1.40;0.55;;;30.90;88.10;;;;;;5115613;28;20043;-83
2023/06/08 12:14:46;;;;;;;0.05;0.05;;;31.00;87.00;;;;;;5122049;27;20027;-85
2023/06/08 12:17:15;;;;;;;0.47;0.43;;;31.60;85.60;;;;;;5115947;28;20027;-85
2023/06/08 12:19:45;;;;;;;0.00;0.00;;;31.80;85.10;;;;;;5077975;28;20032;-85
2023/06/08 12:22:12;;;;;;;0.22;0.22;;;31.50;84.20;;;;;;5116945;28;20020;-85
2023/06/08 12:24:38;;;;;;;0.20;0.17;;;31.90;83.90;;;;;;5117612;28;20032;-84
2023/06/08 12:27:07;;;;;;;1.95;0.75;;;31.80;83.60;;;;;;5115894;28;20062;-78
2023/06/08 12:29:34;;;;;;;0.10;0.10;;;31.60;83.80;;;;;;5116138;28;20026;-83
2023/06/08 12:32:00;;;;;;;1.45;0.22;;;31.50;83.90;;;;;;5117179;28;20019;-79
2023/06/08 12:34:26;;;;;;;0.52;0.52;;;31.50;83.30;;;;;;5107740;28;20028;-84
2023/06/08 12:36:52;;;;;;;0.75;0.43;;;31.50;83.30;;;;;;5100627;28;20016;-85
2023/06/08 12:39:18;;;;;;;1.30;0.70;;;31.70;83.40;;;;;;5116115;28;20050;-84
2023/06/08 12:41:43;;;;;;;9.57;0.93;;;31.30;83.60;;;;;;5110526;28;20062;-83
2023/06/08 12:44:10;;;;;;;0.10;0.10;;;31.00;83.10;;;;;;5091947;28;20032;-85
2023/06/08 12:46:36;;;;;;;0.43;0.43;;;31.10;83.30;;;;;;5115897;28;20114;-85
2023/06/08 12:49:03;;;;;;;4.32;1.58;;;30.90;82.70;;;;;;5116050;28;20352;-84
2023/06/08 12:51:29;;;;;;;1.73;1.08;;;31.00;83.00;;;;;;5115817;28;20019;-80
2023/06/08 12:53:55;;;;;;;0.47;0.47;;;31.60;82.90;;;;;;5115667;28;20027;-85